Sumter, SC

8:57 AM EDT on August 29, 2015 (GMT -0400)
USC Sumter | | Change Station
CLOSE
Current Station
Personal Weather Station
Location: Sumter, SC
Elevation: 165 ft
Nearby Weather Stations

Elev 165 ft 33.93 °N, 80.37 °W | Updated 19 minutes ago

Clear
Clear
66.6 °F
Feels Like 66.6 °F
N
1.0
Wind Variable Wind from SSW
Gusts 7.0 mph

Today
High -- | Low -- °F
--% Chance of Precip.
Yesterday
High -- | Low -- °F
Precip. -- in
6:52 AM 7:50 PM
Full, 100% visible
Pressure 30.19 in
Visibility 3.0 miles
Clouds Clear
Dew Point 62 °F
Humidity 86%
Rainfall Not available.
Snow Depth Not available.
UV 0.0 out of 12
Pollen 7.80 out of 12
Air Quality Not available.
Flu Activity Not available.
SPECI KSSC 291223Z AUTO 03006KT 3SM BR CLR 20/18 A3019 RMK AO2 $
Pressure 30.19 in
Visibility 3.0 miles
Clouds Clear
Dew Point 62 °F
Humidity 86%
Rainfall Not available.
Snow Depth Not available.
UV 0.0 out of 12
Pollen 7.80 out of 12
Air Quality Not available.
Flu Activity Not available.
SPECI KSSC 291223Z AUTO 03006KT 3SM BR CLR 20/18 A3019 RMK AO2 $
Erika has become very unorganized in the face of strong wind shear in the eastern Caribbean Sea. The storm will pass directly over mountainous Hispaniola today, likely weakening it further. If the storm remains intact, it could reach an area favorable for strengthening before moving onto Florida by early next week. Follow the live blog

10-Day Weather Forecast

×

Almanac

Astronomy

Aug. 29, 2015 Rise Set
Actual Time
Civil Twilight
Nautical Twilight
Astronomical Twilight
Moon
Length of Visible Light
Length of Day
Tomorrow will be .
, % of the Moon is Illuminated

Today's Extremes

State Highs State Lows

Community

WunderPhotos

Upload Photos

1,850,677 photos uploaded!

WunderBlogs® & News

Nearby

Air Quality

  Air Quality AQ Index Pollutant
Not available.

Snow Depth

Station Depth Elevation

Earthquake Activity

City Distance Mag. Time & Date
Minimum magnitude displayed is 2.5.

Coastal Water Temperatures

Place Temperature

Stations

Nearby Weather Stations

Station Location Temp. Windchill Dew Point Humidity Wind Precip. Elev Updated Type